Time;durP1;ratioP1;P1;durP2;ratioP2;P2;SDS_P1;SDS_P2;PMS_P1;PMS_P2;Temp;Humidity;BMP_temperature;BMP_pressure;BME280_temperature;BME280_humidity;BME280_pressure;Samples;Min_cycle;Max_cycle;Signal;HPM_P1;HPM_P2
2023/10/18 00:04:10;;;;;;;6.75;4.43;;;;;;;2.48;100.00;149292.72;10545444;28;20082;-68
2023/10/18 00:14:34;;;;;;;4.68;3.83;;;;;;;2.06;100.00;149184.97;10547327;28;20412;-68
2023/10/18 00:19:37;;;;;;;4.00;3.35;;;;;;;1.89;100.00;149143.91;10545992;28;20040;-69
2023/10/18 00:24:39;;;;;;;4.43;3.65;;;;;;;2.28;100.00;149241.38;10545454;28;20043;-69
2023/10/18 00:29:43;;;;;;;5.43;4.60;;;;;;;1.99;100.00;149168.25;10549145;28;20047;-67
2023/10/18 00:34:44;;;;;;;4.70;4.28;;;;;;;1.97;100.00;149163.16;10544731;28;20500;-68
2023/10/18 00:39:46;;;;;;;3.95;3.47;;;;;;;1.73;100.00;149104.19;10526118;28;20055;-68
2023/10/18 00:45:02;;;;;;;5.10;4.13;;;;;;;2.08;100.00;149190.06;10525453;28;20136;-68
2023/10/18 00:50:06;;;;;;;6.70;3.67;;;;;;;1.64;100.00;149081.13;10545625;28;20042;-68
2023/10/18 00:55:11;;;;;;;4.30;3.88;;;;;;;2.00;100.00;149172.13;10525043;28;20181;-68
2023/10/18 01:00:19;;;;;;;4.22;3.83;;;;;;;1.69;100.00;149092.66;10525097;28;20044;-68
2023/10/18 01:05:21;;;;;;;5.07;4.55;;;;;;;1.75;100.00;149108.03;10524665;28;20072;-68
2023/10/18 01:10:23;;;;;;;5.13;4.18;;;;;;;1.85;99.45;149133.66;10542966;28;20085;-68
2023/10/18 01:15:28;;;;;;;4.38;3.65;;;;;;;1.59;100.00;149068.25;10544743;28;20036;-68
2023/10/18 01:25:34;;;;;;;4.18;3.75;;;;;;;1.39;100.00;149017.03;10523698;28;20040;-68
2023/10/18 01:30:37;;;;;;;5.03;4.25;;;;;;;1.35;100.00;149008.03;10542118;28;20075;-68
2023/10/18 01:35:46;;;;;;;5.70;4.07;;;;;;;1.12;100.00;148949.09;10526746;28;20558;-68
2023/10/18 01:40:52;;;;;;;7.05;4.35;;;;;;;1.07;100.00;148936.28;10524698;28;20043;-68
2023/10/18 01:45:54;;;;;;;4.75;4.22;;;;;;;1.05;100.00;148931.16;10524144;28;20438;-68
2023/10/18 01:50:56;;;;;;;5.97;3.83;;;;;;;1.52;100.00;149050.34;10541888;28;20032;-67
2023/10/18 01:56:01;;;;;;;4.82;4.10;;;;;;;1.51;100.00;149049.06;10543908;28;20042;-67
2023/10/18 02:01:08;;;;;;;5.50;4.97;;;;;;;1.42;100.00;149026.00;10523770;28;20071;-68
2023/10/18 02:06:14;;;;;;;5.25;4.35;;;;;;;1.21;100.00;148973.44;10541079;28;20044;-68
2023/10/18 02:11:16;;;;;;;4.95;4.32;;;;;;;1.04;100.00;148928.59;10541727;28;20044;-68
2023/10/18 02:16:19;;;;;;;5.38;4.38;;;;;;;1.00;100.00;148919.63;10524120;28;20119;-67
2023/10/18 02:21:22;;;;;;;5.70;4.00;;;;;;;1.11;100.00;148946.56;10543465;28;20100;-68
2023/10/18 02:26:30;;;;;;;3.58;3.13;;;;;;;0.93;100.00;148902.97;10541242;28;20094;-68
2023/10/18 02:31:33;;;;;;;4.95;3.88;;;;;;;0.82;100.00;148874.78;10541203;28;20089;-68
2023/10/18 02:36:46;;;;;;;5.93;4.45;;;;;;;0.75;100.00;148856.81;10523256;28;20052;-70
2023/10/18 02:41:50;;;;;;;7.22;4.55;;;;;;;0.80;100.00;148868.34;10524589;28;20048;-70
2023/10/18 02:46:54;;;;;;;5.10;3.67;;;;;;;0.88;100.00;148888.84;10541233;28;20044;-70
2023/10/18 02:51:57;;;;;;;5.32;4.05;;;;;;;0.89;100.00;148892.72;10522895;28;20047;-70
2023/10/18 02:56:59;;;;;;;5.75;4.32;;;;;;;1.15;100.00;148958.06;10530411;28;20414;-70
2023/10/18 03:02:01;;;;;;;4.65;3.95;;;;;;;1.36;100.00;149010.59;10550867;28;20105;-70
2023/10/18 03:07:08;;;;;;;5.00;4.10;;;;;;;1.10;100.00;148943.94;10550971;28;20431;-70
2023/10/18 03:12:13;;;;;;;5.20;4.32;;;;;;;1.34;100.00;149005.47;10530431;28;20089;-70
2023/10/18 03:17:19;;;;;;;5.47;4.90;;;;;;;1.25;100.00;148982.41;10529400;28;20068;-70
2023/10/18 03:22:23;;;;;;;5.53;4.20;;;;;;;1.29;100.00;148991.41;10530816;28;20412;-70
2023/10/18 03:27:33;;;;;;;5.47;4.07;;;;;;;1.00;100.00;148919.63;10548057;28;20048;-70
2023/10/18 03:32:38;;;;;;;5.35;4.38;;;;;;;0.91;100.00;148897.84;10548454;28;20036;-70
2023/10/18 03:37:40;;;;;;;5.35;3.92;;;;;;;0.78;100.00;148863.25;10548148;28;20052;-70
2023/10/18 03:42:45;;;;;;;5.45;4.38;;;;;;;1.11;100.00;148946.56;10548475;28;20046;-70
2023/10/18 03:48:01;;;;;;;7.10;4.75;;;;;;;1.01;100.00;148922.16;10525353;28;20118;-70
2023/10/18 03:53:06;;;;;;;6.05;4.85;;;;;;;0.93;100.00;148902.97;10530032;28;20070;-70
2023/10/18 03:58:08;;;;;;;6.00;4.93;;;;;;;1.00;100.00;148919.63;10528828;28;20056;-70
2023/10/18 04:03:12;;;;;;;5.38;4.78;;;;;;;0.87;100.00;148887.56;10529804;28;20040;-70
2023/10/18 04:08:17;;;;;;;7.15;5.13;;;;;;;0.93;100.00;148902.97;10547730;28;20082;-70
2023/10/18 04:13:19;;;;;;;6.47;4.72;;;;;;;1.08;100.00;148938.84;10546274;28;20044;-70
2023/10/18 04:18:29;;;;;;;8.35;5.53;;;;;;;0.90;100.00;148895.28;10546093;28;20071;-70
2023/10/18 04:23:34;;;;;;;6.07;4.45;;;;;;;1.15;100.00;148958.06;10547542;28;20040;-70
2023/10/18 04:28:39;;;;;;;5.85;5.07;;;;;;;1.05;100.00;148931.16;10549920;28;20469;-69
2023/10/18 04:33:42;;;;;;;5.45;4.70;;;;;;;1.04;100.00;148928.59;10545674;28;20097;-70
2023/10/18 04:38:47;;;;;;;6.32;5.03;;;;;;;1.08;100.00;148940.13;10545613;28;20492;-69
2023/10/18 04:43:50;;;;;;;6.25;5.63;;;;;;;1.23;100.00;148978.53;10544286;28;20040;-69
2023/10/18 04:53:58;;;;;;;5.45;4.93;;;;;;;0.87;100.00;148886.31;10544196;28;20059;-69
2023/10/18 04:59:10;;;;;;;5.82;5.15;;;;;;;0.94;100.00;148905.53;10544790;28;20052;-70
2023/10/18 05:04:24;;;;;;;5.40;4.20;;;;;;;1.36;100.00;149009.31;10536542;28;20036;-70
2023/10/18 05:09:32;;;;;;;5.07;4.63;;;;;;;1.44;100.00;149029.81;10544798;28;20402;-70
2023/10/18 05:14:35;;;;;;;6.20;5.18;;;;;;;1.28;100.00;148990.06;10543644;28;20397;-69
2023/10/18 05:19:56;;;;;;;5.20;4.70;;;;;;;1.16;100.00;148960.63;10542586;28;20048;-69
2023/10/18 05:30:16;;;;;;;5.00;4.50;;;;;;;1.57;100.00;149061.88;10542274;28;20464;-69
2023/10/18 05:35:21;;;;;;;6.70;4.93;;;;;;;1.51;100.00;149047.78;10543455;28;20036;-69
2023/10/18 05:45:43;;;;;;;6.97;5.38;;;;;;;1.46;100.00;149036.25;10524386;28;20057;-69
2023/10/18 05:50:49;;;;;;;10.20;5.30;;;;;;;1.63;100.00;149078.50;10541693;28;20090;-70
2023/10/18 05:55:54;;;;;;;5.85;5.03;;;;;;;1.74;100.00;149106.75;10542798;28;20044;-69
2023/10/18 06:00:57;;;;;;;6.88;5.50;;;;;;;1.91;100.00;149149.06;10523229;28;20100;-69
2023/10/18 06:06:00;;;;;;;7.35;6.63;;;;;;;2.18;100.00;149217.03;10542717;28;20059;-70
2023/10/18 06:11:08;;;;;;;4.80;4.38;;;;;;;2.34;100.00;149255.47;10523589;28;20063;-70
2023/10/18 06:16:20;;;;;;;7.47;6.30;;;;;;;2.32;100.00;149251.66;10545501;28;20106;-70
2023/10/18 06:21:25;;;;;;;8.85;6.53;;;;;;;2.52;100.00;149301.66;10543403;28;20420;-70
2023/10/18 06:26:30;;;;;;;9.68;6.45;;;;;;;2.67;99.37;149340.16;10542593;28;20515;-70
2023/10/18 06:44:43;;;;;;;7.13;5.70;;;;;;;2.81;97.98;149373.53;10550175;28;20040;-69
2023/10/18 06:49:47;;;;;;;5.53;5.03;;;;;;;2.83;98.89;149378.66;10549217;28;20044;-70
2023/10/18 06:54:54;;;;;;;6.07;5.50;;;;;;;2.94;98.12;149408.19;10550639;28;20127;-69
2023/10/18 06:59:56;;;;;;;9.53;5.33;;;;;;;3.10;98.03;149446.66;10550026;28;20067;-69
2023/10/18 07:04:58;;;;;;;6.38;5.78;;;;;;;3.39;97.75;149521.13;10547741;28;20115;-69
2023/10/18 07:10:04;;;;;;;7.70;5.95;;;;;;;3.45;96.67;149535.25;10547470;28;20208;-69
2023/10/18 07:15:09;;;;;;;6.63;5.97;;;;;;;3.49;96.50;149546.78;10547177;28;20040;-69
2023/10/18 07:20:15;;;;;;;7.32;6.07;;;;;;;3.61;95.40;149576.34;10530928;28;20070;-69
2023/10/18 07:25:21;;;;;;;7.47;6.17;;;;;;;3.79;95.43;149621.28;10547438;28;20036;-69
2023/10/18 07:30:37;;;;;;;6.25;5.45;;;;;;;3.86;95.69;149639.28;10546635;28;20036;-70
2023/10/18 07:35:46;;;;;;;7.72;6.38;;;;;;;3.87;95.14;149641.84;10548158;28;20035;-69
2023/10/18 07:40:57;;;;;;;6.75;6.03;;;;;;;4.00;95.68;149675.22;10545264;28;20044;-69
2023/10/18 07:46:04;;;;;;;6.35;5.68;;;;;;;4.32;93.31;149754.88;10546516;28;20036;-69
2023/10/18 07:51:25;;;;;;;6.10;5.35;;;;;;;4.57;92.57;149817.84;10527880;28;20090;-69
2023/10/18 07:56:31;;;;;;;7.53;5.43;;;;;;;4.82;91.14;149880.78;10546294;28;20105;-70
2023/10/18 08:06:53;;;;;;;7.25;5.43;;;;;;;5.16;89.90;149966.94;10546718;28;20044;-70
2023/10/18 08:12:06;;;;;;;6.38;5.50;;;;;;;5.52;87.75;150058.22;10545308;28;20044;-70
2023/10/18 08:17:29;;;;;;;6.70;6.00;;;;;;;5.65;87.11;150089.13;10546132;28;20036;-70
2023/10/18 08:22:31;;;;;;;5.18;4.70;;;;;;;5.94;85.86;150163.78;10546158;28;20067;-70
2023/10/18 08:27:32;;;;;;;5.93;5.05;;;;;;;6.02;84.75;150183.03;10545974;28;20407;-70
2023/10/18 08:32:37;;;;;;;6.45;5.80;;;;;;;6.14;85.19;150212.66;10527020;28;20098;-70
2023/10/18 08:37:39;;;;;;;5.68;4.80;;;;;;;6.46;82.76;150293.72;10526312;28;20071;-70
2023/10/18 08:42:49;;;;;;;5.95;5.25;;;;;;;6.67;81.64;150346.50;10543596;28;20068;-70
2023/10/18 08:47:57;;;;;;;5.50;5.00;;;;;;;6.77;81.55;150373.56;10526563;28;20097;-69
2023/10/18 08:52:59;;;;;;;4.78;4.38;;;;;;;6.88;81.24;150400.59;10543328;28;20047;-70
2023/10/18 08:58:08;;;;;;;4.88;4.45;;;;;;;7.13;82.04;150462.34;10524521;28;20090;-70
2023/10/18 09:03:11;;;;;;;4.88;4.40;;;;;;;7.46;79.10;150546.09;10542911;28;20411;-70
2023/10/18 09:08:26;;;;;;;4.43;3.95;;;;;;;7.50;78.80;150557.69;10542920;28;20047;-69
2023/10/18 09:13:37;;;;;;;5.78;3.58;;;;;;;7.87;76.76;150650.44;10543756;28;20055;-69
2023/10/18 09:18:40;;;;;;;4.78;3.97;;;;;;;7.96;75.93;150672.34;10542566;28;20404;-69
2023/10/18 09:23:41;;;;;;;4.35;3.95;;;;;;;8.11;74.71;150711.03;10541713;28;20415;-69
2023/10/18 09:28:44;;;;;;;4.30;3.60;;;;;;;8.44;74.34;150794.81;10542291;28;20040;-69
2023/10/18 09:33:50;;;;;;;5.93;5.43;;;;;;;8.65;73.49;150847.69;10542728;28;20043;-69
2023/10/18 09:38:56;;;;;;;3.72;3.22;;;;;;;8.83;72.36;150892.81;10541487;28;20040;-70
2023/10/18 09:44:00;;;;;;;3.85;3.55;;;;;;;8.80;72.50;150886.34;10541182;28;20040;-69
2023/10/18 09:49:19;;;;;;;3.53;3.20;;;;;;;9.07;70.74;150954.75;10543184;28;20040;-69
2023/10/18 09:54:22;;;;;;;5.25;3.47;;;;;;;9.12;71.18;150966.34;10541584;28;20044;-69
2023/10/18 09:59:31;;;;;;;4.80;3.90;;;;;;;9.59;70.45;151085.00;10542513;28;20048;-70
2023/10/18 10:04:35;;;;;;;4.07;3.67;;;;;;;10.00;68.78;151188.22;10541054;28;20119;-70
2023/10/18 10:09:38;;;;;;;4.15;3.72;;;;;;;10.51;66.58;151317.38;10522865;28;20075;-70
2023/10/18 10:14:41;;;;;;;3.65;3.35;;;;;;;10.81;65.77;151393.56;10541816;28;20055;-70
2023/10/18 10:19:48;;;;;;;5.20;4.70;;;;;;;11.33;61.04;151525.28;10539665;28;20560;-70
2023/10/18 10:25:00;;;;;;;4.80;4.35;;;;;;;11.58;60.79;151588.59;10539709;28;20040;-69
2023/10/18 10:35:32;;;;;;;5.10;4.60;;;;;;;12.15;56.37;151733.41;10540207;28;20041;-70
2023/10/18 10:40:39;;;;;;;3.53;3.22;;;;;;;12.12;59.71;151726.94;10524243;28;20048;-69
2023/10/18 10:50:57;;;;;;;4.18;3.88;;;;;;;12.35;57.46;151785.16;10542941;28;19920;-70
2023/10/18 10:56:17;;;;;;;3.78;3.47;;;;;;;12.77;56.62;151891.16;10539862;28;20036;-69
2023/10/18 11:01:31;;;;;;;4.55;3.80;;;;;;;12.98;54.43;151942.91;10540521;28;20040;-70
2023/10/18 11:06:42;;;;;;;4.63;4.22;;;;;;;12.65;55.03;151860.09;10540194;28;20036;-70
2023/10/18 11:11:47;;;;;;;4.15;3.75;;;;;;;12.47;54.43;151814.84;10539275;28;20070;-70
2023/10/18 11:16:56;;;;;;;3.80;3.30;;;;;;;12.13;56.39;151728.25;10526447;28;20044;-70
2023/10/18 11:21:58;;;;;;;4.25;3.85;;;;;;;12.29;55.60;151769.59;10531271;28;20044;-70
2023/10/18 11:27:02;;;;;;;4.85;4.05;;;;;;;12.22;55.61;151750.19;10547163;28;20043;-70
2023/10/18 11:32:06;;;;;;;5.07;3.92;;;;;;;12.03;56.30;151702.38;10547511;28;20457;-70
2023/10/18 11:37:09;;;;;;;3.95;3.65;;;;;;;12.00;55.78;151695.94;10528710;28;20040;-69
2023/10/18 11:42:12;;;;;;;4.30;3.90;;;;;;;11.99;57.09;151693.31;10528941;28;20054;-70
2023/10/18 11:47:20;;;;;;;5.70;4.47;;;;;;;12.05;56.02;151707.56;10545780;28;20072;-70
2023/10/18 11:52:22;;;;;;;5.68;3.38;;;;;;;11.89;55.78;151667.47;10547370;28;20066;-70
2023/10/18 11:57:29;;;;;;;3.85;3.55;;;;;;;11.79;56.34;151642.88;10546356;28;20089;-69
2023/10/18 12:02:31;;;;;;;3.75;3.45;;;;;;;11.69;57.00;151615.78;10528736;28;20131;-70
2023/10/18 12:07:36;;;;;;;4.22;3.83;;;;;;;11.76;56.86;151633.84;10527706;28;20055;-70
2023/10/18 12:12:38;;;;;;;4.85;3.90;;;;;;;11.73;58.05;151627.41;10547108;28;20068;-70
2023/10/18 12:17:39;;;;;;;4.35;3.78;;;;;;;11.63;57.82;151602.81;10545478;28;20123;-69
2023/10/18 12:22:42;;;;;;;3.03;2.72;;;;;;;11.60;58.20;151593.81;10545653;28;20044;-69
2023/10/18 12:27:52;;;;;;;3.55;3.08;;;;;;;11.66;58.20;151608.00;10546162;28;20537;-70
2023/10/18 12:32:54;;;;;;;3.08;2.78;;;;;;;11.81;56.60;151646.75;10527276;28;20101;-70
2023/10/18 12:37:56;;;;;;;3.47;2.80;;;;;;;11.69;59.28;151617.06;10543922;28;20047;-70
2023/10/18 12:43:00;;;;;;;3.72;3.38;;;;;;;11.75;58.91;151631.25;10525506;28;20044;-70
2023/10/18 12:48:09;;;;;;;3.47;3.10;;;;;;;11.73;60.26;151626.06;10544593;28;20055;-70
2023/10/18 12:58:32;;;;;;;3.75;3.45;;;;;;;11.60;59.64;151595.09;10542607;28;20123;-70
2023/10/18 13:03:37;;;;;;;3.83;3.00;;;;;;;11.65;60.20;151605.44;10543753;28;20047;-70
2023/10/18 13:08:39;;;;;;;3.33;2.85;;;;;;;11.73;59.40;151627.41;10544380;28;20048;-70
2023/10/18 13:13:44;;;;;;;3.38;3.08;;;;;;;11.74;59.51;151629.97;10543064;28;20552;-70
2023/10/18 13:18:47;;;;;;;4.03;3.38;;;;;;;11.88;58.72;151664.91;10524702;28;20090;-71
2023/10/18 13:23:49;;;;;;;3.47;3.17;;;;;;;12.06;58.52;151711.44;10542318;28;20043;-69
2023/10/18 13:28:51;;;;;;;2.90;2.67;;;;;;;11.96;58.49;151685.59;10545108;28;20044;-69
2023/10/18 13:33:53;;;;;;;2.70;2.50;;;;;;;11.98;57.67;151689.47;10542490;28;20040;-70
2023/10/18 13:38:55;;;;;;;4.18;3.08;;;;;;;11.97;57.64;151686.88;10540644;28;20055;-70
2023/10/18 13:43:57;;;;;;;3.08;2.78;;;;;;;11.88;58.99;151663.63;10540649;28;20413;-70
2023/10/18 13:48:59;;;;;;;3.58;2.45;;;;;;;11.72;59.17;151624.78;10540760;28;20101;-71
2023/10/18 13:54:01;;;;;;;4.45;3.55;;;;;;;11.69;59.16;151615.78;10543266;28;20055;-71
2023/10/18 13:59:04;;;;;;;3.80;3.40;;;;;;;11.54;60.40;151578.25;10541411;28;20044;-69
2023/10/18 14:04:08;;;;;;;4.18;3.38;;;;;;;11.54;60.38;151579.56;10540688;28;20036;-70
2023/10/18 14:09:12;;;;;;;3.47;3.17;;;;;;;11.32;61.97;151522.72;10540677;28;20054;-70
2023/10/18 14:14:14;;;;;;;4.20;3.40;;;;;;;11.18;62.86;151486.56;10541855;28;20043;-70
2023/10/18 14:19:19;;;;;;;5.03;4.53;;;;;;;11.19;63.55;151490.41;10539947;28;20048;-70
2023/10/18 14:24:25;;;;;;;5.30;4.88;;;;;;;11.04;64.09;151452.97;10539781;28;20596;-70
2023/10/18 14:29:27;;;;;;;5.57;5.18;;;;;;;11.08;64.04;151462.00;10541278;28;20047;-69
2023/10/18 14:34:28;;;;;;;6.05;5.60;;;;;;;10.90;65.04;151415.53;10541372;28;20047;-69
2023/10/18 14:39:30;;;;;;;6.78;6.10;;;;;;;10.74;66.10;151375.47;10539842;28;20074;-70
2023/10/18 14:44:40;;;;;;;5.15;4.75;;;;;;;10.64;66.70;151350.94;10539321;28;20063;-70
2023/10/18 14:49:43;;;;;;;6.40;5.88;;;;;;;10.65;67.67;151353.53;10541518;28;20048;-70
2023/10/18 14:54:46;;;;;;;5.97;5.18;;;;;;;10.48;68.17;151309.63;10546986;28;20040;-70
2023/10/18 14:59:48;;;;;;;5.20;4.80;;;;;;;10.42;69.00;151294.13;10548188;28;20510;-69
2023/10/18 15:04:52;;;;;;;5.78;5.28;;;;;;;10.23;69.60;151247.63;10547227;28;20043;-70
2023/10/18 15:09:54;;;;;;;6.25;5.60;;;;;;;10.28;69.67;151260.56;10546856;28;20567;-70
2023/10/18 15:14:56;;;;;;;6.00;5.38;;;;;;;10.31;69.22;151268.34;10546876;28;20040;-70
2023/10/18 15:19:58;;;;;;;4.53;4.22;;;;;;;10.22;69.67;151245.00;10548148;28;20109;-69
2023/10/18 15:25:04;;;;;;;5.35;4.95;;;;;;;10.21;69.15;151241.16;10545669;28;20036;-70
2023/10/18 15:30:08;;;;;;;6.32;4.82;;;;;;;10.13;70.17;151221.78;10546788;28;20043;-70
2023/10/18 15:35:12;;;;;;;5.03;4.63;;;;;;;10.03;70.43;151195.97;10545908;28;20407;-71
2023/10/18 15:40:13;;;;;;;5.85;5.35;;;;;;;9.98;70.03;151183.06;10546584;28;20035;-70
2023/10/18 15:45:17;;;;;;;5.68;5.18;;;;;;;9.84;71.38;151149.53;10545563;28;20036;-69
2023/10/18 15:50:19;;;;;;;5.10;4.70;;;;;;;9.89;71.70;151161.13;10527492;28;20488;-69
2023/10/18 15:55:21;;;;;;;7.07;6.20;;;;;;;9.95;70.82;151175.31;10545280;28;20036;-70
2023/10/18 16:00:23;;;;;;;6.30;5.70;;;;;;;9.94;70.70;151172.75;10526021;28;20135;-72
2023/10/18 16:05:31;;;;;;;7.68;6.55;;;;;;;9.76;71.91;151127.59;10546424;28;20090;-69
2023/10/18 16:10:33;;;;;;;6.82;6.25;;;;;;;9.69;71.79;151110.78;10544591;28;20044;-69
2023/10/18 16:15:35;;;;;;;8.35;5.97;;;;;;;9.61;72.86;151090.19;10526686;28;20126;-68
2023/10/18 16:20:37;;;;;;;6.03;5.47;;;;;;;9.41;73.91;151038.56;10526606;28;20043;-69
2023/10/18 16:25:40;;;;;;;6.75;6.15;;;;;;;9.15;75.04;150972.78;10545896;28;20484;-69
2023/10/18 16:30:42;;;;;;;6.38;5.78;;;;;;;9.27;74.88;151005.03;10544581;28;20458;-76
2023/10/18 16:35:58;;;;;;;9.27;6.55;;;;;;;9.09;75.68;150959.88;10511593;28;20040;-67
2023/10/18 16:41:05;;;;;;;6.32;5.82;;;;;;;8.86;76.79;150900.56;10543330;28;20051;-72
2023/10/18 16:46:11;;;;;;;6.00;5.50;;;;;;;8.71;77.48;150861.88;10544637;28;20066;-68
2023/10/18 16:51:16;;;;;;;7.50;6.80;;;;;;;8.62;77.95;150839.94;10545285;28;20442;-68
2023/10/18 16:56:19;;;;;;;7.25;6.60;;;;;;;8.47;79.15;150801.28;10543005;28;20036;-68
2023/10/18 17:01:22;;;;;;;7.43;6.70;;;;;;;8.50;79.33;150809.00;10546173;28;20040;-68
2023/10/18 17:06:24;;;;;;;7.20;6.55;;;;;;;8.44;79.83;150793.53;10542917;28;20090;-68
2023/10/18 17:11:26;;;;;;;7.25;6.60;;;;;;;8.63;78.59;150841.22;10543416;28;20071;-69
2023/10/18 17:16:29;;;;;;;7.38;6.70;;;;;;;8.47;79.41;150802.56;10541160;28;20058;-68
2023/10/18 17:21:31;;;;;;;7.00;6.38;;;;;;;8.45;79.51;150796.09;10523489;28;20044;-68
2023/10/18 17:26:33;;;;;;;6.70;5.95;;;;;;;8.48;79.67;150803.84;10540920;28;20109;-68
2023/10/18 17:31:35;;;;;;;6.40;5.85;;;;;;;8.49;79.26;150807.72;10542682;28;20113;-69
2023/10/18 17:36:37;;;;;;;6.95;6.30;;;;;;;8.65;79.52;150847.69;10541682;28;20039;-68
2023/10/18 17:41:39;;;;;;;7.15;6.60;;;;;;;8.33;80.93;150767.72;10541139;28;20071;-68
2023/10/18 17:46:47;;;;;;;6.53;6.03;;;;;;;7.99;82.45;150680.09;10541013;28;20035;-69
2023/10/18 17:51:51;;;;;;;7.55;6.85;;;;;;;7.76;83.88;150622.13;10542142;28;20043;-68
2023/10/18 17:56:53;;;;;;;6.90;6.32;;;;;;;7.63;85.00;150588.63;10540359;28;20052;-68
2023/10/18 18:01:54;;;;;;;7.57;6.95;;;;;;;7.63;85.28;150589.91;10541033;28;20061;-69
2023/10/18 18:06:57;;;;;;;8.10;7.45;;;;;;;7.38;87.44;150526.75;10540735;28;20456;-69
2023/10/18 18:11:59;;;;;;;7.90;7.20;;;;;;;7.33;88.01;150515.16;10541014;28;20052;-69
2023/10/18 18:17:01;;;;;;;8.82;7.78;;;;;;;7.39;88.57;150528.03;10524776;28;20376;-69
2023/10/18 18:22:03;;;;;;;8.90;8.10;;;;;;;7.23;89.61;150489.44;10540425;28;20128;-69
2023/10/18 18:27:05;;;;;;;9.38;8.57;;;;;;;7.13;89.50;150462.34;10539246;28;20040;-69
2023/10/18 18:32:08;;;;;;;7.72;7.13;;;;;;;7.02;90.11;150435.34;10540936;28;20151;-70
2023/10/18 18:37:10;;;;;;;8.95;8.13;;;;;;;7.23;91.24;150489.44;10542451;28;20048;-69
2023/10/18 18:42:11;;;;;;;9.18;8.38;;;;;;;7.02;91.20;150436.63;10540271;28;20050;-70
2023/10/18 18:47:14;;;;;;;8.88;7.28;;;;;;;6.92;92.22;150409.59;10539832;28;20036;-70
2023/10/18 18:52:16;;;;;;;8.25;7.55;;;;;;;6.81;92.08;150383.81;10539998;28;20468;-68
2023/10/18 18:57:18;;;;;;;8.90;8.00;;;;;;;6.81;93.27;150382.53;10543686;28;20032;-69
2023/10/18 19:02:21;;;;;;;8.00;7.10;;;;;;;6.81;92.28;150383.81;10541030;28;20434;-70
2023/10/18 19:07:23;;;;;;;8.77;7.97;;;;;;;7.17;90.17;150472.66;10541025;28;20093;-69
2023/10/18 19:12:26;;;;;;;8.88;8.07;;;;;;;7.13;90.37;150463.69;10540128;28;20040;-70
2023/10/18 19:17:28;;;;;;;8.32;7.57;;;;;;;7.16;89.72;150471.38;10540125;28;20036;-69
2023/10/18 19:22:32;;;;;;;9.48;8.57;;;;;;;6.86;91.22;150395.41;10543018;28;20403;-69
2023/10/18 19:27:35;;;;;;;8.30;7.50;;;;;;;6.72;91.74;150359.38;10539701;28;20044;-69
2023/10/18 19:32:36;;;;;;;8.32;7.53;;;;;;;6.94;91.71;150416.00;10522098;28;20094;-69
2023/10/18 19:37:39;;;;;;;7.40;6.78;;;;;;;7.06;90.45;150446.94;10542727;28;20097;-69
2023/10/18 19:42:41;;;;;;;8.18;6.68;;;;;;;7.21;89.12;150484.25;10549853;28;20075;-70
2023/10/18 19:47:43;;;;;;;7.28;6.68;;;;;;;7.19;89.23;150477.84;10545979;28;20059;-69
2023/10/18 19:52:45;;;;;;;7.18;6.57;;;;;;;7.22;89.31;150486.88;10528594;28;20499;-68
2023/10/18 19:57:47;;;;;;;8.70;7.85;;;;;;;7.27;87.36;150499.75;10549866;28;20120;-70
2023/10/18 20:02:48;;;;;;;7.95;7.25;;;;;;;7.15;88.80;150467.53;10548653;28;20047;-69
2023/10/18 20:07:51;;;;;;;6.75;6.13;;;;;;;7.27;88.13;150499.75;10546291;28;20466;-69
2023/10/18 20:12:55;;;;;;;7.80;7.00;;;;;;;7.19;87.94;150477.84;10546615;28;20044;-69
2023/10/18 20:17:57;;;;;;;7.07;6.47;;;;;;;7.10;88.58;150455.94;10545706;28;20036;-72
2023/10/18 20:23:00;;;;;;;7.10;6.50;;;;;;;7.08;88.15;150452.09;10545280;28;20048;-74
2023/10/18 20:28:01;;;;;;;7.88;7.18;;;;;;;7.06;89.73;150445.66;10547026;28;20562;-72
2023/10/18 20:33:03;;;;;;;7.85;6.93;;;;;;;7.14;89.10;150464.97;10544809;28;20048;-71
2023/10/18 20:38:05;;;;;;;6.22;5.75;;;;;;;7.17;88.87;150474.00;10544871;28;20036;-72
2023/10/18 20:43:07;;;;;;;6.75;6.10;;;;;;;7.02;88.42;150436.63;10545440;28;20074;-71
2023/10/18 20:48:10;;;;;;;6.75;6.15;;;;;;;7.05;88.44;150444.38;10546458;28;20420;-73
2023/10/18 20:53:17;;;;;;;5.45;5.03;;;;;;;6.75;89.61;150367.09;10524729;28;20052;-73
2023/10/18 20:58:21;;;;;;;5.90;5.30;;;;;;;6.78;89.46;150376.13;10524693;28;20086;-72
2023/10/18 21:03:26;;;;;;;6.10;5.35;;;;;;;6.97;88.76;150423.75;10542848;28;20060;-73
2023/10/18 21:08:31;;;;;;;5.47;4.93;;;;;;;7.11;86.88;150457.22;10544374;28;20036;-73
2023/10/18 21:13:33;;;;;;;6.03;4.85;;;;;;;7.06;85.58;150446.94;10523696;28;20064;-72
2023/10/18 21:18:35;;;;;;;6.07;4.45;;;;;;;7.28;84.02;150502.31;10542045;28;20115;-72
2023/10/18 21:23:39;;;;;;;5.45;4.35;;;;;;;7.34;82.24;150517.75;10541702;28;20127;-72
2023/10/18 21:28:42;;;;;;;4.57;4.15;;;;;;;7.31;82.35;150510.03;10543002;28;20410;-72
2023/10/18 21:33:44;;;;;;;7.03;4.32;;;;;;;7.76;78.15;150622.13;10542988;28;20044;-72
2023/10/18 21:38:46;;;;;;;6.28;4.43;;;;;;;7.65;77.95;150595.03;10541103;28;20036;-72
2023/10/18 21:43:48;;;;;;;4.32;3.92;;;;;;;7.79;76.55;150629.81;10541876;28;20101;-73
2023/10/18 21:48:51;;;;;;;6.53;4.40;;;;;;;7.78;76.62;150627.25;10542240;28;20040;-72
2023/10/18 21:53:53;;;;;;;4.32;3.92;;;;;;;7.74;76.16;150616.94;10543500;28;20032;-72
2023/10/18 21:58:55;;;;;;;3.58;3.28;;;;;;;7.80;75.47;150633.72;10522635;28;20071;-72
2023/10/18 22:03:59;;;;;;;3.72;3.42;;;;;;;7.80;75.04;150633.72;10539782;28;20442;-72
2023/10/18 22:09:08;;;;;;;4.82;3.13;;;;;;;7.70;75.82;150607.97;10539833;28;20043;-72
2023/10/18 22:14:18;;;;;;;3.95;3.55;;;;;;;7.86;74.50;150646.59;10542182;28;20064;-71
2023/10/18 22:19:29;;;;;;;3.63;3.28;;;;;;;7.74;74.75;150618.22;10540022;28;20101;-72
2023/10/18 22:24:37;;;;;;;4.43;2.70;;;;;;;7.87;73.35;150650.44;10541772;28;20133;-73
2023/10/18 22:29:41;;;;;;;3.08;2.45;;;;;;;7.89;73.60;150654.31;10539782;28;20044;-73
2023/10/18 22:34:42;;;;;;;5.78;2.80;;;;;;;7.84;73.45;150642.72;10542440;28;20040;-73
2023/10/18 22:39:49;;;;;;;3.47;2.45;;;;;;;7.85;73.71;150645.31;10539356;28;20072;-73
2023/10/18 22:50:26;;;;;;;4.05;2.80;;;;;;;7.90;72.96;150658.19;10511096;28;20063;-72
2023/10/18 22:55:32;;;;;;;2.65;2.20;;;;;;;8.02;71.01;150687.84;10539607;28;20546;-72
2023/10/18 23:00:34;;;;;;;3.28;2.75;;;;;;;7.88;71.36;150651.72;10540809;28;20119;-72
2023/10/18 23:05:39;;;;;;;3.13;2.55;;;;;;;7.87;71.32;150650.44;10538669;28;20036;-72
2023/10/18 23:15:55;;;;;;;2.95;2.40;;;;;;;7.93;70.40;150664.63;10546410;28;20032;-73
2023/10/18 23:47:15;;;;;;;2.90;2.38;;;;;;;8.09;68.59;150705.84;10546143;28;20446;-72
2023/10/18 23:52:30;;;;;;;2.28;1.88;;;;;;;8.13;68.41;150716.16;10545870;28;20555;-72
2023/10/18 23:57:32;;;;;;;3.95;2.55;;;;;;;8.12;68.38;150713.59;10546801;28;20044;-72
